createdAt,value
2017-11-08T00:01:22.360Z,6.26
2017-11-08T00:02:22.411Z,6.30
2017-11-08T00:04:15.937Z,6.26
2017-11-08T00:05:15.681Z,6.14
2017-11-08T00:07:10.223Z,6.25
2017-11-08T00:08:10.130Z,6.26
2017-11-08T00:10:03.479Z,6.32
2017-11-08T00:11:03.577Z,6.25
2017-11-08T00:12:57.032Z,6.32
2017-11-08T00:13:56.973Z,6.22
2017-11-08T00:15:51.320Z,6.28
2017-11-08T00:16:51.348Z,6.33
2017-11-08T00:18:45.736Z,6.25
2017-11-08T00:19:45.787Z,6.28
2017-11-08T00:21:39.187Z,6.28
2017-11-08T00:22:39.101Z,6.29
2017-11-08T00:24:33.481Z,6.30
2017-11-08T00:25:33.562Z,6.32
2017-11-08T00:27:28.077Z,6.32
2017-11-08T00:28:27.851Z,6.29
2017-11-08T00:30:22.324Z,6.25
2017-11-08T00:31:22.386Z,6.28
2017-11-08T00:33:15.645Z,6.38
2017-11-08T00:34:15.794Z,6.30
2017-11-08T00:36:09.079Z,6.38
2017-11-08T00:37:09.334Z,6.38
2017-11-08T00:39:02.624Z,6.29
2017-11-08T00:40:02.529Z,6.25
2017-11-08T00:41:56.888Z,6.28
2017-11-08T00:42:57.005Z,6.29
2017-11-08T00:44:50.425Z,6.28
2017-11-08T00:45:50.364Z,6.26
2017-11-08T00:47:43.804Z,6.22
2017-11-08T00:48:43.698Z,6.19
2017-11-08T00:50:37.066Z,6.29
2017-11-08T00:51:37.063Z,6.28
2017-11-08T00:53:31.629Z,6.21
2017-11-08T00:54:31.467Z,6.28
2017-11-08T00:56:24.924Z,6.29
2017-11-08T00:57:24.935Z,6.26
2017-11-08T00:59:18.249Z,6.28
2017-11-08T01:00:18.397Z,6.21
2017-11-08T01:02:12.293Z,6.26
2017-11-08T01:03:11.705Z,6.29
2017-11-08T01:05:05.080Z,6.28
2017-11-08T01:06:05.100Z,6.25
2017-11-08T01:07:58.411Z,6.25
2017-11-08T01:08:58.566Z,6.29
2017-11-08T01:10:51.869Z,6.21
2017-11-08T01:11:51.949Z,6.26
2017-11-08T01:13:46.393Z,6.19
2017-11-08T01:14:46.286Z,6.28
2017-11-08T01:16:39.862Z,6.30
2017-11-08T01:17:39.589Z,6.25
2017-11-08T01:19:34.217Z,6.25
2017-11-08T01:20:34.049Z,6.16
2017-11-08T01:22:28.466Z,6.25
2017-11-08T01:23:28.563Z,6.19
2017-11-08T01:25:21.862Z,6.21
2017-11-08T01:26:21.945Z,6.21
2017-11-08T01:28:16.160Z,6.26
2017-11-08T01:29:16.430Z,6.25
2017-11-08T01:31:10.614Z,6.26
2017-11-08T01:32:10.684Z,6.19
2017-11-08T01:34:04.998Z,6.09
2017-11-08T01:35:05.151Z,6.04
2017-11-08T01:36:58.459Z,5.93
2017-11-08T01:37:58.598Z,6.03
2017-11-08T01:39:51.768Z,6.01
2017-11-08T01:40:51.916Z,6.00
2017-11-08T01:42:45.168Z,5.98
2017-11-08T01:43:45.251Z,6.04
2017-11-08T01:45:39.696Z,6.09
2017-11-08T01:46:39.678Z,6.07
2017-11-08T01:48:34.080Z,6.00
2017-11-08T01:49:34.070Z,6.03
2017-11-08T01:51:28.411Z,6.06
2017-11-08T01:52:28.386Z,6.04
2017-11-08T01:54:22.746Z,6.07
2017-11-08T01:55:22.797Z,6.04
2017-11-08T01:57:16.167Z,6.01
2017-11-08T01:58:16.276Z,5.96
2017-11-08T02:00:10.729Z,6.00
2017-11-08T02:01:10.571Z,6.07
2017-11-08T02:03:04.995Z,6.04
2017-11-08T02:04:05.111Z,6.10
2017-11-08T02:05:59.372Z,6.06
2017-11-08T02:06:59.428Z,6.07
2017-11-08T02:08:54.000Z,6.11
2017-11-08T02:09:53.805Z,6.09
2017-11-08T02:11:47.327Z,5.98
2017-11-08T02:12:47.170Z,6.00
2017-11-08T02:14:40.562Z,6.04
2017-11-08T02:15:40.696Z,6.01
2017-11-08T02:17:34.999Z,6.06
2017-11-08T02:18:35.075Z,6.01
2017-11-08T02:20:29.314Z,6.00
2017-11-08T02:21:29.701Z,6.06
2017-11-08T02:23:23.801Z,6.09
2017-11-08T02:24:23.951Z,6.04
2017-11-08T02:26:17.130Z,6.11
2017-11-08T02:27:17.270Z,6.14
2017-11-08T02:29:10.629Z,6.22
2017-11-08T02:30:10.605Z,6.26
2017-11-08T02:32:03.993Z,6.25
2017-11-08T02:33:03.947Z,6.22
2017-11-08T02:34:57.431Z,6.21
2017-11-08T02:35:57.496Z,6.21
2017-11-08T02:37:51.933Z,6.26
2017-11-08T02:38:51.727Z,6.22
2017-11-08T02:40:46.383Z,6.26
2017-11-08T02:41:46.157Z,6.19
2017-11-08T02:43:40.706Z,6.14
2017-11-08T02:44:40.486Z,6.18
2017-11-08T02:46:33.988Z,6.30
2017-11-08T02:47:33.981Z,6.28
2017-11-08T02:49:27.483Z,6.30
2017-11-08T02:50:27.334Z,6.14
2017-11-08T02:52:21.716Z,6.28
2017-11-08T02:53:21.824Z,6.25
2017-11-08T02:55:15.309Z,6.26
2017-11-08T02:56:15.187Z,6.29
2017-11-08T02:58:10.736Z,6.19
2017-11-08T02:59:10.655Z,6.25
2017-11-08T03:01:04.107Z,6.26
2017-11-08T03:02:04.010Z,6.22
2017-11-08T03:03:57.772Z,6.21
2017-11-08T03:04:57.363Z,6.22
2017-11-08T03:06:51.659Z,6.26
2017-11-08T03:07:51.937Z,6.25
2017-11-08T03:09:45.117Z,6.21
2017-11-08T03:10:45.275Z,6.28
2017-11-08T03:12:38.514Z,6.18
2017-11-08T03:13:38.635Z,6.25
2017-11-08T03:15:33.218Z,6.25
2017-11-08T03:16:32.966Z,6.30
2017-11-08T03:18:26.278Z,6.30
2017-11-08T03:19:26.450Z,6.30
2017-11-08T03:21:20.671Z,6.30
2017-11-08T03:22:21.041Z,6.29
2017-11-08T03:24:14.262Z,6.30
2017-11-08T03:25:14.177Z,6.30
2017-11-08T03:27:08.511Z,6.25
2017-11-08T03:28:08.458Z,6.32
2017-11-08T03:30:01.927Z,6.22
2017-11-08T03:31:02.226Z,6.25
2017-11-08T03:32:57.465Z,6.25
2017-11-08T03:33:57.281Z,6.21
2017-11-08T03:35:51.775Z,6.16
2017-11-08T03:36:51.756Z,6.22
2017-11-08T03:38:46.042Z,6.19
2017-11-08T03:39:54.665Z,6.21
2017-11-08T03:41:39.407Z,6.13
2017-11-08T03:42:39.577Z,6.09
2017-11-08T03:44:34.075Z,6.11
2017-11-08T03:45:33.885Z,6.09
2017-11-08T03:47:28.385Z,6.10
2017-11-08T03:48:28.300Z,6.03
2017-11-08T03:50:22.582Z,5.98
2017-11-08T03:51:22.991Z,6.01
2017-11-08T03:53:17.148Z,5.98
2017-11-08T03:54:17.061Z,6.03
2017-11-08T03:56:10.612Z,5.98
2017-11-08T03:57:10.668Z,6.00
2017-11-08T03:59:04.952Z,5.95
2017-11-08T04:00:04.909Z,5.98
2017-11-08T04:01:58.400Z,5.92
2017-11-08T04:02:58.311Z,6.01
2017-11-08T04:04:51.600Z,5.98
2017-11-08T04:05:51.688Z,6.01
2017-11-08T04:07:45.173Z,6.01
2017-11-08T04:08:45.145Z,5.95
2017-11-08T04:10:39.368Z,5.98
2017-11-08T04:11:39.636Z,5.98
2017-11-08T04:13:33.789Z,6.00
2017-11-08T04:14:34.079Z,5.96
2017-11-08T04:16:27.186Z,5.96
2017-11-08T04:17:27.372Z,5.95
2017-11-08T04:19:20.930Z,6.00
2017-11-08T04:20:20.821Z,6.01
2017-11-08T04:22:15.233Z,6.01
2017-11-08T04:23:15.097Z,5.98
2017-11-08T04:25:09.563Z,5.96
2017-11-08T04:26:09.618Z,5.96
2017-11-08T04:28:02.780Z,5.92
2017-11-08T04:29:02.887Z,6.01
2017-11-08T04:30:57.179Z,5.98
2017-11-08T04:31:57.297Z,6.00
2017-11-08T04:33:51.904Z,5.98
2017-11-08T04:34:51.781Z,6.03
2017-11-08T04:36:46.152Z,6.01
2017-11-08T04:37:46.075Z,5.95
2017-11-08T04:39:39.737Z,5.98
2017-11-08T04:40:39.575Z,5.95
2017-11-08T04:42:33.914Z,5.93
2017-11-08T04:43:41.482Z,5.95
2017-11-08T04:45:28.448Z,5.95
2017-11-08T04:46:28.511Z,6.06
2017-11-08T04:48:22.642Z,6.07
2017-11-08T04:49:22.740Z,5.96
2017-11-08T04:51:17.264Z,5.98
2017-11-08T04:52:17.337Z,6.00
2017-11-08T04:54:10.347Z,5.98
2017-11-08T04:55:10.623Z,6.00
2017-11-08T04:57:04.830Z,6.10
2017-11-08T04:58:05.117Z,6.04
2017-11-08T04:59:59.383Z,5.98
2017-11-08T05:00:59.201Z,5.98
2017-11-08T05:02:52.787Z,6.07
2017-11-08T05:03:52.780Z,5.93
2017-11-08T05:05:47.216Z,5.95
2017-11-08T05:06:54.622Z,5.93
2017-11-08T05:08:41.660Z,5.89
2017-11-08T05:09:41.370Z,5.83
2017-11-08T05:11:35.763Z,5.92
2017-11-08T05:12:35.960Z,5.92
2017-11-08T05:14:29.321Z,5.91
2017-11-08T05:15:29.151Z,5.91
2017-11-08T05:17:22.703Z,5.88
2017-11-08T05:18:22.583Z,5.89
2017-11-08T05:20:16.250Z,5.92
2017-11-08T05:21:16.036Z,5.92
2017-11-08T05:23:10.520Z,5.92
2017-11-08T05:24:10.455Z,5.89
2017-11-08T05:26:11.838Z,5.95
2017-11-08T05:27:11.433Z,5.89
2017-11-08T05:28:58.093Z,5.93
2017-11-08T05:29:58.318Z,5.88
2017-11-08T05:31:51.739Z,5.91
2017-11-08T05:32:51.703Z,5.95
2017-11-08T05:34:44.943Z,5.92
2017-11-08T05:35:45.137Z,5.95
2017-11-08T05:37:38.493Z,5.95
2017-11-08T05:38:38.561Z,5.88
2017-11-08T05:40:31.775Z,5.89
2017-11-08T05:41:31.894Z,5.91
2017-11-08T05:43:25.138Z,5.81
2017-11-08T05:44:25.153Z,5.83
2017-11-08T05:46:19.601Z,5.85
2017-11-08T05:47:28.141Z,5.91
2017-11-08T05:49:12.924Z,5.85
2017-11-08T05:50:13.032Z,5.85
2017-11-08T05:52:06.826Z,5.89
2017-11-08T05:53:06.505Z,5.74
2017-11-08T05:54:59.746Z,5.83
2017-11-08T05:55:59.965Z,5.85
2017-11-08T05:57:54.387Z,5.81
2017-11-08T05:58:54.195Z,5.88
2017-11-08T06:00:47.514Z,5.89
2017-11-08T06:01:47.729Z,5.89
2017-11-08T06:03:41.137Z,5.89
2017-11-08T06:04:41.173Z,5.93
2017-11-08T06:06:35.490Z,5.85
2017-11-08T06:07:35.318Z,5.95
2017-11-08T06:09:28.862Z,5.86
2017-11-08T06:10:28.877Z,5.83
2017-11-08T06:12:23.070Z,5.86
2017-11-08T06:13:23.240Z,5.88
2017-11-08T06:15:16.647Z,5.88
2017-11-08T06:16:16.507Z,5.88
2017-11-08T06:18:09.911Z,5.92
2017-11-08T06:19:09.915Z,5.95
2017-11-08T06:21:03.686Z,5.82
2017-11-08T06:22:03.361Z,5.93
2017-11-08T06:23:56.801Z,5.95
2017-11-08T06:24:56.721Z,5.91
2017-11-08T06:26:51.166Z,5.91
2017-11-08T06:27:51.134Z,5.92
2017-11-08T06:29:45.579Z,5.95
2017-11-08T06:30:45.545Z,5.96
2017-11-08T06:32:39.859Z,6.04
2017-11-08T06:33:39.932Z,5.92
2017-11-08T06:35:33.374Z,6.03
2017-11-08T06:36:33.304Z,5.98
2017-11-08T06:38:26.818Z,5.98
2017-11-08T06:39:26.804Z,6.00
2017-11-08T06:41:20.027Z,5.95
2017-11-08T06:42:20.111Z,6.00
2017-11-08T06:44:13.509Z,6.01
2017-11-08T06:45:13.486Z,5.96
2017-11-08T06:47:06.968Z,6.01
2017-11-08T06:48:06.929Z,6.00
2017-11-08T06:50:01.254Z,6.01
2017-11-08T06:51:01.221Z,6.01
2017-11-08T06:52:54.777Z,5.98
2017-11-08T06:53:54.722Z,6.00
2017-11-08T06:55:48.194Z,6.00
2017-11-08T06:56:48.010Z,6.03
2017-11-08T06:58:41.497Z,5.96
2017-11-08T06:59:41.543Z,6.03
2017-11-08T07:01:35.807Z,5.92
2017-11-08T07:02:35.976Z,5.98
2017-11-08T07:04:29.293Z,6.03
2017-11-08T07:05:29.315Z,6.09
2017-11-08T07:07:23.723Z,6.00
2017-11-08T07:08:23.680Z,6.07
2017-11-08T07:10:17.185Z,5.98
2017-11-08T07:11:17.032Z,6.11
2017-11-08T07:13:11.449Z,6.01
2017-11-08T07:14:11.493Z,6.03
2017-11-08T07:16:05.770Z,6.00
2017-11-08T07:17:05.855Z,5.98
2017-11-08T07:19:00.359Z,6.11
2017-11-08T07:20:07.801Z,6.13
2017-11-08T07:21:53.599Z,6.10
2017-11-08T07:22:53.586Z,6.06
2017-11-08T07:24:46.791Z,6.07
2017-11-08T07:25:46.620Z,6.14
2017-11-08T07:27:40.944Z,6.16
2017-11-08T07:28:40.978Z,6.01
2017-11-08T07:30:34.633Z,6.07
2017-11-08T07:31:34.334Z,6.09
2017-11-08T07:33:27.678Z,6.10
2017-11-08T07:34:27.860Z,6.07
2017-11-08T07:36:22.152Z,6.25
2017-11-08T07:37:22.156Z,6.21
2017-11-08T07:39:16.755Z,6.26
2017-11-08T07:40:16.452Z,6.22
2017-11-08T07:42:09.985Z,6.21
2017-11-08T07:43:09.896Z,6.19
2017-11-08T07:45:03.417Z,6.21
2017-11-08T07:46:03.376Z,6.21
2017-11-08T07:47:57.812Z,6.22
2017-11-08T07:48:57.761Z,6.30
2017-11-08T07:50:51.271Z,6.30
2017-11-08T07:51:51.239Z,6.32
2017-11-08T07:53:44.427Z,6.29
2017-11-08T07:54:44.549Z,6.32
2017-11-08T07:56:37.859Z,6.48
2017-11-08T07:57:37.869Z,6.47
2017-11-08T07:59:32.257Z,6.51
2017-11-08T08:00:32.271Z,6.65
2017-11-08T08:02:25.642Z,6.53
2017-11-08T08:03:25.670Z,6.62
2017-11-08T08:05:19.034Z,6.69
2017-11-08T08:06:19.010Z,6.63
2017-11-08T08:08:12.417Z,6.68
2017-11-08T08:09:12.414Z,6.71
2017-11-08T08:11:05.829Z,6.73
2017-11-08T08:12:05.788Z,6.77
2017-11-08T08:14:00.190Z,6.79
2017-11-08T08:15:00.210Z,6.73
2017-11-08T08:16:53.637Z,6.72
2017-11-08T08:17:53.604Z,6.66
2017-11-08T08:19:46.959Z,6.71
2017-11-08T08:20:46.967Z,6.80
2017-11-08T08:22:40.403Z,6.86
2017-11-08T08:23:40.378Z,6.98
2017-11-08T08:25:33.723Z,7.05
2017-11-08T08:26:33.795Z,6.95
2017-11-08T08:28:27.159Z,6.80
2017-11-08T08:29:27.143Z,6.76
2017-11-08T08:31:20.522Z,6.72
2017-11-08T08:32:20.594Z,6.72
2017-11-08T08:34:14.007Z,6.62
2017-11-08T08:35:13.945Z,6.62
2017-11-08T08:37:08.428Z,6.56
2017-11-08T08:38:08.337Z,6.51
2017-11-08T08:40:01.738Z,6.51
2017-11-08T08:41:01.766Z,6.46
2017-11-08T08:42:55.128Z,6.43
2017-11-08T08:43:55.127Z,6.36
2017-11-08T08:45:48.561Z,6.44
2017-11-08T08:46:48.547Z,6.48
2017-11-08T08:48:41.899Z,6.53
2017-11-08T08:49:41.942Z,6.44
2017-11-08T08:51:35.366Z,6.56
2017-11-08T08:52:35.303Z,6.63
2017-11-08T08:54:28.743Z,6.59
2017-11-08T08:55:28.676Z,6.48
2017-11-08T08:57:22.105Z,6.53
2017-11-08T08:58:22.079Z,6.62
2017-11-08T09:00:15.425Z,6.63
2017-11-08T09:01:15.483Z,6.71
2017-11-08T09:03:08.876Z,6.66
2017-11-08T09:04:08.855Z,6.61
2017-11-08T09:06:02.306Z,6.71
2017-11-08T09:07:02.268Z,6.72
2017-11-08T09:08:55.626Z,6.72
2017-11-08T09:09:55.669Z,6.73
2017-11-08T09:11:50.073Z,6.77
2017-11-08T09:12:50.054Z,6.72
2017-11-08T09:14:43.474Z,6.81
2017-11-08T09:15:43.416Z,6.72
2017-11-08T09:17:36.854Z,6.56
2017-11-08T09:18:36.844Z,6.51
2017-11-08T09:20:30.210Z,6.54
2017-11-08T09:21:30.272Z,6.61
2017-11-08T09:23:24.646Z,6.72
2017-11-08T09:24:24.614Z,6.76
2017-11-08T09:26:18.002Z,6.81
2017-11-08T09:27:18.045Z,6.84
2017-11-08T09:29:11.494Z,6.87
2017-11-08T09:30:11.435Z,6.81
2017-11-08T09:32:04.831Z,6.86
2017-11-08T09:33:04.811Z,6.95
2017-11-08T09:34:58.204Z,6.97
2017-11-08T09:35:58.263Z,7.05
2017-11-08T09:37:51.601Z,6.98
2017-11-08T09:38:51.646Z,6.99
2017-11-08T09:40:45.021Z,6.98
2017-11-08T09:41:45.007Z,6.95
2017-11-08T09:43:38.393Z,6.95
2017-11-08T09:44:38.453Z,6.87
2017-11-08T09:46:31.796Z,6.97
2017-11-08T09:47:31.817Z,6.97
2017-11-08T09:49:25.185Z,6.80
2017-11-08T09:50:25.225Z,6.98
2017-11-08T09:52:18.617Z,6.83
2017-11-08T09:53:18.610Z,6.80
2017-11-08T09:55:12.039Z,6.73
2017-11-08T09:56:12.092Z,6.84
2017-11-08T09:58:06.566Z,6.97
2017-11-08T09:59:06.363Z,7.08
2017-11-08T10:00:59.307Z,7.12
2017-11-08T10:01:59.388Z,7.08
2017-11-08T10:03:52.681Z,7.13
2017-11-08T10:04:52.748Z,7.09
2017-11-08T10:06:46.089Z,7.22
2017-11-08T10:07:46.081Z,7.22
2017-11-08T10:09:39.586Z,7.27
2017-11-08T10:10:39.585Z,7.37
2017-11-08T10:12:32.929Z,7.32
2017-11-08T10:13:32.967Z,7.40
2017-11-08T10:15:26.362Z,7.40
2017-11-08T10:16:26.321Z,7.38
2017-11-08T10:18:20.708Z,7.45
2017-11-08T10:19:20.781Z,7.40
2017-11-08T10:21:14.175Z,7.31
2017-11-08T10:22:14.155Z,7.29
2017-11-08T10:24:07.556Z,7.40
2017-11-08T10:25:07.559Z,7.45
2017-11-08T10:27:00.942Z,7.53
2017-11-08T10:28:00.917Z,7.45
2017-11-08T10:29:54.414Z,7.32
2017-11-08T10:30:54.386Z,7.26
2017-11-08T10:32:47.767Z,7.20
2017-11-08T10:33:47.763Z,7.22
2017-11-08T10:35:41.139Z,7.22
2017-11-08T10:36:41.180Z,7.16
2017-11-08T10:38:35.609Z,7.07
2017-11-08T10:39:35.634Z,7.19
2017-11-08T10:41:28.925Z,7.20
2017-11-08T10:42:29.378Z,7.12
2017-11-08T10:44:23.321Z,7.29
2017-11-08T10:45:23.288Z,7.40
2017-11-08T10:47:17.707Z,7.42
2017-11-08T10:48:17.640Z,7.22
2017-11-08T10:50:11.072Z,7.31
2017-11-08T10:51:11.053Z,7.45
2017-11-08T10:53:04.510Z,7.32
2017-11-08T10:54:04.489Z,7.34
2017-11-08T10:55:58.892Z,7.45
2017-11-08T10:56:58.869Z,7.52
2017-11-08T10:58:52.312Z,7.62
2017-11-08T10:59:52.278Z,7.66
2017-11-08T11:01:45.687Z,7.87
2017-11-08T11:02:45.727Z,8.00
2017-11-08T11:04:40.167Z,8.07
2017-11-08T11:05:40.163Z,7.97
2017-11-08T11:07:33.561Z,7.89
2017-11-08T11:08:33.509Z,7.99
2017-11-08T11:10:26.910Z,8.00
2017-11-08T11:11:26.901Z,7.90
2017-11-08T11:13:21.325Z,7.90
2017-11-08T11:14:21.325Z,7.75
2017-11-08T11:16:14.730Z,7.85
2017-11-08T11:17:14.726Z,7.92
2017-11-08T11:19:08.192Z,7.87
2017-11-08T11:20:08.143Z,7.94
2017-11-08T11:22:02.534Z,7.96
2017-11-08T11:23:02.531Z,8.03
2017-11-08T11:24:56.956Z,7.94
2017-11-08T11:25:56.884Z,7.87
2017-11-08T11:27:50.317Z,7.81
2017-11-08T11:28:50.310Z,7.92
2017-11-08T11:30:44.731Z,7.77
2017-11-08T11:31:44.715Z,7.79
2017-11-08T11:33:38.173Z,7.69
2017-11-08T11:34:45.780Z,7.74
2017-11-08T11:36:31.553Z,7.78
2017-11-08T11:37:31.544Z,7.89
2017-11-08T11:39:24.945Z,7.82
2017-11-08T11:40:24.934Z,7.78
2017-11-08T11:42:18.315Z,7.79
2017-11-08T11:43:18.357Z,7.75
2017-11-08T11:45:11.717Z,7.72
2017-11-08T11:46:11.728Z,7.62
2017-11-08T11:48:05.123Z,7.79
2017-11-08T11:49:05.097Z,7.66
2017-11-08T11:50:59.541Z,7.84
2017-11-08T11:51:59.580Z,7.78
2017-11-08T11:53:53.030Z,7.85
2017-11-08T11:54:52.960Z,7.77
2017-11-08T11:56:47.351Z,7.75
2017-11-08T11:57:47.332Z,7.89
2017-11-08T11:59:40.672Z,7.82
2017-11-08T12:00:40.736Z,7.92
2017-11-08T12:02:35.153Z,7.85
2017-11-08T12:03:35.129Z,7.89
2017-11-08T12:05:29.582Z,7.79
2017-11-08T12:06:29.582Z,7.75
2017-11-08T12:08:22.960Z,7.66
2017-11-08T12:09:22.947Z,7.63
2017-11-08T12:11:16.361Z,7.77
2017-11-08T12:12:16.351Z,7.63
2017-11-08T12:14:09.837Z,7.79
2017-11-08T12:15:09.786Z,7.74
2017-11-08T12:17:03.159Z,7.71
2017-11-08T12:18:03.157Z,7.66
2017-11-08T12:19:57.531Z,7.63
2017-11-08T12:20:57.577Z,7.56
2017-11-08T12:22:51.005Z,7.62
2017-11-08T12:23:50.940Z,7.79
2017-11-08T12:25:44.389Z,7.69
2017-11-08T12:26:44.358Z,7.78
2017-11-08T12:28:37.734Z,7.82
2017-11-08T12:29:37.729Z,7.90
2017-11-08T12:31:31.204Z,7.82
2017-11-08T12:32:31.452Z,7.78
2017-11-08T12:34:24.571Z,7.77
2017-11-08T12:35:24.498Z,7.78
2017-11-08T12:37:17.954Z,7.84
2017-11-08T12:38:17.953Z,7.89
2017-11-08T12:40:12.394Z,7.92
2017-11-08T12:41:12.350Z,7.93
2017-11-08T12:43:05.776Z,7.78
2017-11-08T12:44:06.216Z,7.75
2017-11-08T12:45:59.132Z,7.66
2017-11-08T12:46:59.167Z,7.66
2017-11-08T12:48:52.461Z,7.67
2017-11-08T12:49:52.520Z,7.81
2017-11-08T12:51:46.986Z,7.82
2017-11-08T12:52:46.988Z,7.85
2017-11-08T12:54:40.363Z,7.97
2017-11-08T12:55:40.343Z,8.00
2017-11-08T12:57:33.693Z,8.02
2017-11-08T12:58:33.831Z,8.08
2017-11-08T13:00:27.148Z,7.94
2017-11-08T13:01:27.110Z,7.93
2017-11-08T13:03:21.549Z,7.87
2017-11-08T13:04:21.535Z,7.89
2017-11-08T13:06:14.994Z,7.74
2017-11-08T13:07:14.914Z,7.74
2017-11-08T13:09:08.404Z,7.82
2017-11-08T13:10:08.446Z,7.79
2017-11-08T13:12:01.792Z,7.60
2017-11-08T13:13:01.737Z,7.59
2017-11-08T13:14:55.149Z,7.60
2017-11-08T13:15:55.119Z,7.62
2017-11-08T13:17:49.485Z,7.55
2017-11-08T13:18:49.571Z,7.62
2017-11-08T13:20:42.997Z,7.59
2017-11-08T13:21:42.929Z,7.58
2017-11-08T13:23:36.456Z,7.58
2017-11-08T13:24:44.182Z,7.59
2017-11-08T13:26:39.081Z,7.50
2017-11-08T13:27:30.750Z,7.49
2017-11-08T13:29:25.145Z,7.45
2017-11-08T13:30:25.119Z,7.40
2017-11-08T13:32:18.458Z,7.49
2017-11-08T13:33:18.530Z,7.50
2017-11-08T13:35:12.250Z,7.31
2017-11-08T13:36:12.440Z,7.41
2017-11-08T13:38:08.157Z,7.47
2017-11-08T13:39:08.133Z,7.42
2017-11-08T13:41:01.881Z,7.35
2017-11-08T13:42:01.726Z,7.40
2017-11-08T13:43:55.033Z,7.45
2017-11-08T13:44:55.081Z,7.45
2017-11-08T13:46:48.654Z,7.34
2017-11-08T13:47:48.417Z,7.44
2017-11-08T13:49:41.876Z,7.40
2017-11-08T13:50:41.902Z,7.31
2017-11-08T13:52:35.541Z,7.34
2017-11-08T13:53:35.781Z,7.27
2017-11-08T13:55:28.612Z,7.40
2017-11-08T13:56:28.593Z,7.27
2017-11-08T13:58:21.917Z,7.31
2017-11-08T13:59:21.951Z,7.41
2017-11-08T14:01:15.368Z,7.44
2017-11-08T14:02:15.331Z,7.40
2017-11-08T14:04:08.780Z,7.40
2017-11-08T14:05:08.735Z,7.40
2017-11-08T14:07:02.329Z,7.41
2017-11-08T14:08:02.544Z,7.41
2017-11-08T14:09:55.587Z,7.40
2017-11-08T14:10:55.602Z,7.31
2017-11-08T14:12:56.518Z,7.40
2017-11-08T14:13:48.922Z,7.35
2017-11-08T14:15:42.355Z,7.35
2017-11-08T14:16:42.308Z,7.42
2017-11-08T14:18:35.850Z,7.24
2017-11-08T14:19:36.036Z,7.23
2017-11-08T14:21:29.120Z,7.32
2017-11-08T14:22:29.138Z,7.32
2017-11-08T14:24:22.531Z,7.38
2017-11-08T14:25:22.507Z,7.29
2017-11-08T14:27:15.938Z,7.40
2017-11-08T14:28:15.953Z,7.41
2017-11-08T14:30:09.296Z,7.45
2017-11-08T14:31:09.302Z,7.47
2017-11-08T14:33:02.744Z,7.35
2017-11-08T14:34:02.687Z,7.41
2017-11-08T14:35:56.054Z,7.23
2017-11-08T14:36:56.111Z,7.22
2017-11-08T14:38:50.532Z,7.19
2017-11-08T14:39:50.548Z,7.37
2017-11-08T14:41:43.896Z,7.35
2017-11-08T14:42:43.881Z,7.24
2017-11-08T14:44:38.351Z,7.22
2017-11-08T14:45:38.344Z,7.22
2017-11-08T14:47:31.659Z,7.24
2017-11-08T14:48:31.681Z,7.22
2017-11-08T14:50:25.054Z,7.23
2017-11-08T14:51:25.040Z,7.20
2017-11-08T14:53:18.429Z,7.22
2017-11-08T14:54:18.449Z,7.37
2017-11-08T14:56:19.578Z,7.44
2017-11-08T14:57:11.910Z,7.41
2017-11-08T14:59:05.216Z,7.32
2017-11-08T15:00:05.265Z,7.38
2017-11-08T15:01:58.658Z,7.35
2017-11-08T15:02:58.690Z,7.42
2017-11-08T15:04:53.761Z,7.44
2017-11-08T15:05:54.202Z,7.41
2017-11-08T15:07:47.125Z,7.44
2017-11-08T15:08:47.164Z,7.45
2017-11-08T15:11:41.663Z,7.44
2017-11-08T15:13:35.279Z,7.49
2017-11-08T15:14:38.124Z,7.41
2017-11-08T15:16:28.698Z,7.45
2017-11-08T15:17:29.028Z,7.44
2017-11-08T15:19:22.250Z,7.45
2017-11-08T15:20:22.081Z,7.41
2017-11-08T15:22:16.827Z,7.26
2017-11-08T15:25:09.458Z,7.41
2017-11-08T15:26:09.482Z,7.45
2017-11-08T15:28:02.876Z,7.23
2017-11-08T15:29:02.758Z,7.31
2017-11-08T15:30:56.125Z,7.24
2017-11-08T15:31:56.145Z,7.22
2017-11-08T15:33:52.209Z,7.27
2017-11-08T15:34:49.511Z,7.37
2017-11-08T15:36:43.915Z,7.27
2017-11-08T15:37:43.952Z,7.34
2017-11-08T15:39:38.013Z,7.27
2017-11-08T15:40:37.282Z,7.29
2017-11-08T15:42:30.709Z,7.23
2017-11-08T15:43:30.689Z,7.19
2017-11-08T15:45:24.057Z,7.26
2017-11-08T15:46:24.075Z,7.23
2017-11-08T15:48:19.412Z,7.20
2017-11-08T15:49:17.500Z,7.24
2017-11-08T15:51:10.876Z,7.23
2017-11-08T15:52:11.519Z,7.23
2017-11-08T15:54:04.283Z,7.26
2017-11-08T15:55:04.297Z,7.22
2017-11-08T15:56:57.663Z,7.24
2017-11-08T15:57:57.676Z,7.35
2017-11-08T15:59:51.181Z,7.19
2017-11-08T16:00:51.110Z,7.23
2017-11-08T16:02:44.442Z,7.22
2017-11-08T16:03:44.438Z,7.20
2017-11-08T16:05:38.929Z,7.22
2017-11-08T16:06:39.023Z,7.23
2017-11-08T16:08:32.247Z,7.24
2017-11-08T16:09:32.269Z,7.26
2017-11-08T16:11:25.661Z,7.22
2017-11-08T16:12:25.672Z,7.23
2017-11-08T16:14:19.868Z,7.23
2017-11-08T16:15:19.881Z,7.22
2017-11-08T16:17:13.308Z,7.02
2017-11-08T16:18:13.283Z,7.08
2017-11-08T16:20:06.682Z,7.12
2017-11-08T16:21:06.687Z,7.08
2017-11-08T16:23:00.075Z,7.09
2017-11-08T16:24:00.084Z,7.12
2017-11-08T16:25:53.497Z,7.15
2017-11-08T16:26:53.486Z,7.12
2017-11-08T16:28:46.839Z,7.09
2017-11-08T16:29:46.849Z,7.23
2017-11-08T16:31:40.250Z,7.08
2017-11-08T16:32:40.374Z,7.13
2017-11-08T16:34:35.279Z,7.09
2017-11-08T16:35:33.682Z,7.17
2017-11-08T16:37:27.127Z,7.12
2017-11-08T16:38:27.081Z,7.09
2017-11-08T16:40:20.406Z,7.22
2017-11-08T16:41:20.425Z,7.22
2017-11-08T16:43:13.816Z,7.09
2017-11-08T16:44:13.949Z,7.19
2017-11-08T16:46:07.191Z,7.20
2017-11-08T16:47:07.197Z,7.22
2017-11-08T16:49:00.708Z,7.13
2017-11-08T16:50:00.702Z,7.22
2017-11-08T16:51:55.053Z,7.24
2017-11-08T16:52:55.063Z,7.12
2017-11-08T16:54:48.532Z,7.19
2017-11-08T16:55:48.516Z,7.17
2017-11-08T16:57:42.854Z,7.17
2017-11-08T16:58:42.924Z,7.13
2017-11-08T17:00:38.329Z,7.17
2017-11-08T17:01:38.454Z,7.08
2017-11-08T17:03:31.592Z,7.07
2017-11-08T17:04:31.680Z,7.05
2017-11-08T17:06:25.169Z,7.05
2017-11-08T17:07:25.051Z,7.13
2017-11-08T17:09:18.517Z,7.13
2017-11-08T17:10:18.422Z,7.07
2017-11-08T17:12:12.865Z,7.05
2017-11-08T17:13:12.885Z,7.17
2017-11-08T17:15:08.252Z,7.20
2017-11-08T17:16:08.206Z,7.19
2017-11-08T17:18:01.624Z,7.12
2017-11-08T17:19:01.627Z,7.16
2017-11-08T17:20:55.038Z,7.08
2017-11-08T17:21:54.991Z,7.09
2017-11-08T17:23:48.441Z,7.12
2017-11-08T17:24:48.448Z,7.20
2017-11-08T17:26:41.822Z,7.09
2017-11-08T17:27:41.831Z,7.15
2017-11-08T17:29:35.167Z,7.12
2017-11-08T17:30:35.166Z,7.08
2017-11-08T17:32:28.530Z,7.07
2017-11-08T17:33:28.601Z,7.07
2017-11-08T17:35:22.006Z,7.07
2017-11-08T17:36:21.944Z,7.08
2017-11-08T17:38:15.353Z,7.04
2017-11-08T17:39:15.361Z,7.13
2017-11-08T17:41:09.744Z,7.08
2017-11-08T17:42:09.747Z,7.09
2017-11-08T17:44:03.129Z,7.13
2017-11-08T17:45:03.159Z,7.04
2017-11-08T17:46:56.538Z,7.05
2017-11-08T17:47:56.554Z,7.07
2017-11-08T17:49:49.939Z,7.01
2017-11-08T17:50:49.941Z,6.98
2017-11-08T17:52:44.309Z,7.07
2017-11-08T17:53:44.321Z,7.13
2017-11-08T17:55:37.712Z,6.98
2017-11-08T17:56:37.702Z,7.04
2017-11-08T17:58:31.100Z,7.04
2017-11-08T17:59:31.410Z,7.04
2017-11-08T18:01:24.544Z,6.95
2017-11-08T18:02:24.579Z,7.01
2017-11-08T18:04:17.891Z,6.99
2017-11-08T18:05:17.956Z,7.02
2017-11-08T18:07:11.372Z,7.01
2017-11-08T18:08:11.333Z,6.99
2017-11-08T18:10:05.835Z,7.07
2017-11-08T18:11:05.774Z,7.12
2017-11-08T18:13:00.318Z,7.08
2017-11-08T18:13:59.108Z,7.07
2017-11-08T18:15:52.489Z,7.13
2017-11-08T18:16:52.523Z,7.12
2017-11-08T18:18:45.927Z,7.07
2017-11-08T18:19:45.957Z,7.12
2017-11-08T18:21:39.395Z,7.08
2017-11-08T18:22:39.339Z,7.08
2017-11-08T18:24:32.705Z,7.02
2017-11-08T18:25:32.707Z,7.05
2017-11-08T18:27:26.161Z,7.02
2017-11-08T18:28:26.124Z,7.01
2017-11-08T18:30:19.469Z,7.05
2017-11-08T18:31:19.529Z,7.07
2017-11-08T18:33:13.939Z,7.09
2017-11-08T18:34:13.905Z,7.04
2017-11-08T18:36:07.269Z,7.05
2017-11-08T18:37:07.349Z,7.13
2017-11-08T18:39:00.720Z,7.07
2017-11-08T18:40:00.718Z,7.13
2017-11-08T18:41:54.055Z,7.07
2017-11-08T18:42:54.112Z,7.02
2017-11-08T18:44:47.517Z,6.98
2017-11-08T18:45:47.485Z,6.99
2017-11-08T18:47:40.906Z,7.01
2017-11-08T18:48:40.936Z,6.98
2017-11-08T18:50:34.349Z,6.98
2017-11-08T18:51:34.306Z,7.02
2017-11-08T18:53:27.815Z,7.02
2017-11-08T18:54:27.727Z,6.99
2017-11-08T18:56:21.148Z,6.97
2017-11-08T18:57:21.123Z,6.98
2017-11-08T18:59:16.522Z,7.01
2017-11-08T19:00:16.508Z,7.04
2017-11-08T19:02:09.933Z,6.99
2017-11-08T19:03:09.924Z,7.01
2017-11-08T19:05:03.281Z,6.98
2017-11-08T19:06:03.332Z,6.91
2017-11-08T19:07:56.666Z,6.94
2017-11-08T19:08:56.692Z,6.94
2017-11-08T19:10:50.097Z,6.79
2017-11-08T19:11:50.103Z,6.80
2017-11-08T19:13:43.516Z,6.98
2017-11-08T19:14:43.477Z,6.86
2017-11-08T19:16:36.857Z,6.89
2017-11-08T19:17:36.895Z,6.87
2017-11-08T19:19:30.299Z,6.94